Time;durP1;ratioP1;P1;durP2;ratioP2;P2;SDS_P1;SDS_P2;PMS_P1;PMS_P2;Temp;Humidity;BMP_temperature;BMP_pressure;BME280_temperature;BME280_humidity;BME280_pressure;Samples;Min_cycle;Max_cycle;Signal;HPM_P1;HPM_P2
2022/10/08 00:00:04;;;;;;;6.35;2.40;;;;;;;12.77;84.63;101539.75;5069532;28;20032;-67
2022/10/08 00:02:30;;;;;;;9.10;3.08;;;;;;;12.76;84.73;101531.91;5068747;28;20073;-67
2022/10/08 00:04:55;;;;;;;9.88;3.10;;;;;;;12.76;84.34;101538.09;5069382;28;20028;-67
2022/10/08 00:07:21;;;;;;;11.30;3.38;;;;;;;12.75;84.22;101538.28;5069401;28;20048;-67
2022/10/08 00:09:46;;;;;;;10.20;2.25;;;;;;;12.71;84.13;101538.69;5069177;28;20040;-67
2022/10/08 00:12:11;;;;;;;8.43;2.42;;;;;;;12.70;84.01;101536.19;5069253;28;20036;-67
2022/10/08 00:14:39;;;;;;;6.78;2.20;;;;;;;12.66;84.18;101538.44;5068679;28;20036;-67
2022/10/08 00:17:04;;;;;;;7.78;2.20;;;;;;;12.63;84.19;101538.81;5068886;28;20024;-67
2022/10/08 00:19:30;;;;;;;10.02;2.45;;;;;;;12.62;84.49;101541.69;5069304;28;20575;-67
2022/10/08 00:21:55;;;;;;;10.38;3.05;;;;;;;12.57;84.42;101528.88;5069367;28;20043;-67
2022/10/08 00:24:22;;;;;;;9.85;2.58;;;;;;;12.64;84.34;101534.28;5069423;28;20036;-67
2022/10/08 00:26:48;;;;;;;7.03;2.97;;;;;;;12.64;84.72;101537.78;5069256;28;20021;-67
2022/10/08 00:29:15;;;;;;;4.57;2.17;;;;;;;12.67;84.29;101534.72;5069011;28;20028;-67
2022/10/08 00:31:43;;;;;;;7.78;2.15;;;;;;;12.69;84.17;101540.72;5069218;28;20028;-67
2022/10/08 00:34:11;;;;;;;8.30;2.70;;;;;;;12.71;84.27;101535.19;5069106;28;20063;-67
2022/10/08 00:36:39;;;;;;;8.32;2.70;;;;;;;12.72;84.35;101537.63;5069343;28;20033;-67
2022/10/08 00:39:11;;;;;;;4.63;2.65;;;;;;;12.74;84.50;101539.31;5068602;28;20025;-67
2022/10/08 00:41:38;;;;;;;9.57;2.50;;;;;;;12.77;84.45;101536.25;5069068;28;20031;-67
2022/10/08 00:44:40;;;;;;;6.88;1.80;;;;;;;12.79;84.97;101528.84;5069097;28;20031;-67
2022/10/08 00:47:36;;;;;;;9.57;2.70;;;;;;;12.80;85.08;101541.22;5068954;28;20036;-67
2022/10/08 00:50:23;;;;;;;10.15;2.72;;;;;;;12.82;84.93;101541.84;5066594;28;20040;-67
2022/10/08 00:52:54;;;;;;;7.63;2.28;;;;;;;12.82;84.95;101536.50;5067909;28;20044;-67
2022/10/08 00:55:23;;;;;;;12.50;3.77;;;;;;;12.85;85.41;101536.09;5068921;28;20044;-67
2022/10/08 00:57:50;;;;;;;6.25;2.80;;;;;;;12.85;85.37;101544.13;5069010;28;20107;-67
2022/10/08 01:00:22;;;;;;;10.35;2.53;;;;;;;12.86;85.31;101543.09;5068881;28;20029;-67
2022/10/08 01:02:47;;;;;;;6.95;2.35;;;;;;;12.85;85.57;101539.59;5068859;28;20448;-67
2022/10/08 01:05:16;;;;;;;7.30;3.05;;;;;;;12.83;85.82;101541.63;5068632;28;20032;-67
2022/10/08 01:07:56;;;;;;;8.57;2.58;;;;;;;12.78;85.59;101538.72;5068112;28;20035;-67
2022/10/08 01:10:34;;;;;;;14.68;3.03;;;;;;;12.83;85.80;101549.66;5068772;28;20048;-67
2022/10/08 01:13:28;;;;;;;10.57;3.15;;;;;;;12.82;86.04;101542.66;5070311;28;20027;-67
2022/10/08 01:16:09;;;;;;;10.07;2.95;;;;;;;12.82;86.13;101550.69;5072514;28;20020;-67
2022/10/08 01:19:18;;;;;;;15.03;3.73;;;;;;;12.82;86.01;101560.59;5072563;28;20039;-67
2022/10/08 01:22:10;;;;;;;9.15;2.47;;;;;;;12.81;86.35;101550.88;5073407;28;20258;-67
2022/10/08 01:27:33;;;;;;;6.03;2.25;;;;;;;12.79;87.23;101561.81;5072347;28;20043;-67
2022/10/08 01:30:09;;;;;;;8.25;3.20;;;;;;;12.79;87.73;101558.31;5072388;28;20028;-67
2022/10/08 01:32:42;;;;;;;7.80;3.10;;;;;;;12.75;89.01;101565.06;5072270;28;20021;-67
2022/10/08 01:35:19;;;;;;;11.38;4.50;;;;;;;12.67;90.51;101569.50;5072081;28;20024;-67
2022/10/08 01:37:46;;;;;;;12.10;3.72;;;;;;;12.55;92.33;101568.41;5072116;28;20028;-67
2022/10/08 01:40:19;;;;;;;12.10;4.18;;;;;;;12.47;93.51;101572.03;5071926;28;20598;-67
2022/10/08 01:42:48;;;;;;;15.27;4.95;;;;;;;12.39;94.75;101563.28;5071967;28;20028;-67
2022/10/08 01:45:18;;;;;;;15.20;3.55;;;;;;;12.38;94.85;101556.28;5072064;28;20032;-67
2022/10/08 01:47:46;;;;;;;12.55;3.65;;;;;;;12.32;95.58;101557.88;5071707;28;20111;-67
2022/10/08 01:50:17;;;;;;;7.72;4.55;;;;;;;12.26;96.33;101562.16;5071467;28;20020;-67
2022/10/08 01:52:49;;;;;;;9.57;4.27;;;;;;;12.21;96.65;101575.25;5071126;28;20164;-67
2022/10/08 01:55:20;;;;;;;10.98;4.63;;;;;;;12.14;97.90;101566.34;5071303;28;20760;-67
2022/10/08 01:57:47;;;;;;;8.25;4.15;;;;;;;12.10;98.03;101559.69;5071718;28;20035;-67
2022/10/08 02:00:14;;;;;;;8.60;4.47;;;;;;;12.07;98.42;101555.53;5071669;28;20017;-67
2022/10/08 02:02:41;;;;;;;15.63;4.32;;;;;;;12.03;98.50;101554.28;5071578;28;20039;-67
2022/10/08 02:05:07;;;;;;;6.78;4.60;;;;;;;12.02;99.17;101568.66;5071158;28;20029;-67
2022/10/08 02:07:37;;;;;;;10.70;4.00;;;;;;;12.00;99.60;101568.03;5071772;28;20861;-67
2022/10/08 02:10:09;;;;;;;8.88;4.38;;;;;;;11.98;100.00;101575.41;5071200;28;20033;-67
2022/10/08 02:12:35;;;;;;;12.45;4.93;;;;;;;11.96;100.00;101579.28;5071593;28;20101;-67
2022/10/08 02:15:03;;;;;;;8.90;4.20;;;;;;;11.94;100.00;101581.31;5071271;28;20035;-67
2022/10/08 02:17:50;;;;;;;10.88;5.57;;;;;;;11.90;100.00;101578.19;5071467;28;20590;-67
2022/10/08 02:20:21;;;;;;;6.00;4.07;;;;;;;11.87;100.00;101586.59;5071306;28;20514;-67
2022/10/08 02:22:57;;;;;;;9.82;4.07;;;;;;;11.84;100.00;101573.56;5070986;28;20032;-67
2022/10/08 02:25:35;;;;;;;8.15;3.90;;;;;;;11.84;100.00;101589.59;5070528;28;20028;-68
2022/10/08 02:28:44;;;;;;;12.40;3.90;;;;;;;11.83;100.00;101586.09;5070013;28;20033;-67
2022/10/08 02:31:19;;;;;;;7.20;3.83;;;;;;;11.82;100.00;101572.94;5071186;28;20154;-67
2022/10/08 02:33:51;;;;;;;6.10;3.58;;;;;;;11.79;100.00;101578.66;5070663;28;20128;-67
2022/10/08 02:36:23;;;;;;;9.23;3.67;;;;;;;11.78;100.00;101577.81;5071065;28;20089;-67
2022/10/08 02:38:53;;;;;;;11.85;4.68;;;;;;;11.75;100.00;101582.69;5070917;28;20524;-67
2022/10/08 02:41:27;;;;;;;8.20;3.22;;;;;;;11.75;100.00;101578.19;5070820;28;20024;-67
2022/10/08 02:43:56;;;;;;;16.30;3.60;;;;;;;11.74;100.00;101575.72;5070915;28;20166;-67
2022/10/08 02:46:27;;;;;;;8.00;3.00;;;;;;;11.71;100.00;101570.72;5070936;28;20107;-67
2022/10/08 02:49:01;;;;;;;8.15;3.20;;;;;;;11.68;100.00;101577.25;5070882;28;20032;-67
2022/10/08 02:51:29;;;;;;;7.13;2.72;;;;;;;11.67;100.00;101564.94;5070517;28;20136;-67
2022/10/08 02:53:57;;;;;;;7.55;3.50;;;;;;;11.65;100.00;101580.31;5069729;28;20016;-67
2022/10/08 02:56:30;;;;;;;11.18;2.83;;;;;;;11.61;100.00;101577.19;5069927;28;20024;-67
2022/10/08 02:58:56;;;;;;;7.15;2.60;;;;;;;11.61;100.00;101577.19;5070328;28;20090;-67
2022/10/08 03:01:49;;;;;;;6.03;2.80;;;;;;;11.60;100.00;101577.38;5070570;28;20537;-67
2022/10/08 03:04:24;;;;;;;5.78;2.40;;;;;;;11.54;100.00;101573.59;5070575;28;20033;-67
2022/10/08 03:06:52;;;;;;;6.85;2.10;;;;;;;11.52;100.00;101578.28;5070400;28;20423;-67
2022/10/08 03:09:20;;;;;;;8.02;2.10;;;;;;;11.50;100.00;101577.66;5069288;28;20465;-67
2022/10/08 03:11:46;;;;;;;2.60;1.98;;;;;;;11.47;100.00;101569.16;5070176;28;20056;-67
2022/10/08 03:14:14;;;;;;;7.93;2.08;;;;;;;11.46;100.00;101572.88;5070295;28;20487;-67
2022/10/08 03:16:45;;;;;;;9.50;2.75;;;;;;;11.44;100.00;101580.22;5070217;28;20137;-67
2022/10/08 03:19:13;;;;;;;5.30;2.28;;;;;;;11.40;100.00;101580.59;5070559;28;20357;-65
2022/10/08 03:21:41;;;;;;;6.53;2.20;;;;;;;11.37;100.00;101589.00;5070219;28;20019;-65
2022/10/08 03:24:08;;;;;;;6.50;2.10;;;;;;;11.33;100.00;101586.88;5070080;28;20029;-65
2022/10/08 03:26:34;;;;;;;7.38;2.50;;;;;;;11.35;100.00;101592.84;5070069;28;20024;-65
2022/10/08 03:29:00;;;;;;;4.82;2.33;;;;;;;11.32;100.00;101590.56;5069963;28;20418;-66
2022/10/08 03:31:25;;;;;;;11.63;3.63;;;;;;;11.31;100.00;101592.38;5069891;28;20028;-65
2022/10/08 03:33:52;;;;;;;7.93;2.13;;;;;;;11.30;100.00;101595.25;5069844;28;20090;-66
2022/10/08 03:36:18;;;;;;;5.43;1.98;;;;;;;11.31;100.00;101594.22;5068804;28;20047;-65
2022/10/08 03:38:43;;;;;;;8.32;2.03;;;;;;;11.31;100.00;101592.38;5069761;28;20074;-65
2022/10/08 03:41:09;;;;;;;6.45;2.92;;;;;;;11.30;100.00;101608.59;5069763;28;20476;-66
2022/10/08 03:43:34;;;;;;;3.97;1.80;;;;;;;11.28;100.00;101608.78;5069769;28;20399;-65
2022/10/08 03:46:00;;;;;;;4.70;2.25;;;;;;;11.28;100.00;101606.09;5069691;28;20029;-65
2022/10/08 03:48:26;;;;;;;7.35;2.50;;;;;;;11.25;100.00;101609.13;5068848;28;20078;-65
2022/10/08 03:51:07;;;;;;;6.13;2.30;;;;;;;11.23;100.00;101616.50;5069192;28;20119;-65
2022/10/08 03:53:34;;;;;;;5.13;2.30;;;;;;;11.24;100.00;101617.31;5070803;28;20047;-65
2022/10/08 03:56:05;;;;;;;3.78;1.45;;;;;;;11.18;100.00;101613.53;5068921;28;20025;-65
2022/10/08 03:58:31;;;;;;;3.55;1.63;;;;;;;11.14;100.00;101617.59;5068963;28;20025;-65
2022/10/08 04:00:58;;;;;;;4.18;1.80;;;;;;;11.10;100.00;101618.97;5069345;28;20054;-65
2022/10/08 04:03:23;;;;;;;6.75;2.88;;;;;;;11.06;100.00;101618.50;5069438;28;20035;-65
2022/10/08 04:05:49;;;;;;;7.88;3.50;;;;;;;11.03;100.00;101626.88;5069529;28;20392;-65
2022/10/08 04:08:14;;;;;;;7.60;2.35;;;;;;;11.01;100.00;101618.22;5069369;28;20063;-65
2022/10/08 04:10:39;;;;;;;5.82;3.00;;;;;;;10.99;100.00;101624.75;5069188;28;20040;-65
2022/10/08 04:13:05;;;;;;;6.50;2.35;;;;;;;10.95;100.00;101622.44;5069306;28;20111;-65
2022/10/08 04:15:30;;;;;;;4.55;1.98;;;;;;;10.93;100.00;101620.97;5069404;28;20060;-65
2022/10/08 04:17:55;;;;;;;6.90;2.40;;;;;;;10.92;100.00;101627.28;5069382;28;20042;-65
2022/10/08 04:20:21;;;;;;;7.13;2.75;;;;;;;10.89;100.00;101624.97;5069184;28;20067;-65
2022/10/08 04:22:47;;;;;;;4.82;2.17;;;;;;;10.81;100.00;101617.06;5069259;28;20060;-65
2022/10/08 04:25:13;;;;;;;4.93;2.42;;;;;;;10.86;100.00;101633.34;5069222;28;20036;-65
2022/10/08 04:27:39;;;;;;;7.85;2.83;;;;;;;10.82;100.00;101632.03;5069361;28;20514;-65
2022/10/08 04:30:05;;;;;;;7.05;2.88;;;;;;;10.81;100.00;101635.72;5069427;28;20036;-65
2022/10/08 04:32:30;;;;;;;6.57;2.85;;;;;;;10.82;100.00;101634.72;5069208;28;20393;-65
2022/10/08 04:34:55;;;;;;;6.90;2.60;;;;;;;10.84;100.00;101628.19;5069095;28;20036;-65
2022/10/08 04:37:21;;;;;;;7.05;2.60;;;;;;;10.86;100.00;101642.19;5069079;28;20070;-66
2022/10/08 04:39:47;;;;;;;10.73;3.10;;;;;;;10.88;100.00;101637.50;5069092;28;20024;-65
2022/10/08 04:42:12;;;;;;;9.30;3.72;;;;;;;10.92;100.00;101646.78;5069093;28;20032;-65
2022/10/08 04:44:37;;;;;;;5.30;3.05;;;;;;;10.94;100.00;101644.78;5069084;28;20105;-65
2022/10/08 04:47:03;;;;;;;8.90;4.13;;;;;;;10.96;100.00;101642.78;5069016;28;20383;-66
2022/10/08 04:49:28;;;;;;;12.10;5.18;;;;;;;10.99;100.00;101652.25;5073131;28;20032;-66
2022/10/08 04:51:54;;;;;;;15.15;6.38;;;;;;;11.00;100.00;101658.41;5073108;28;20029;-65
2022/10/08 04:54:20;;;;;;;11.70;5.15;;;;;;;11.01;100.00;101654.75;5072858;28;20040;-65
2022/10/08 04:56:45;;;;;;;14.73;6.95;;;;;;;11.03;100.00;101658.91;5072292;28;20173;-65
2022/10/08 04:59:11;;;;;;;16.45;6.45;;;;;;;11.06;100.00;101665.72;5072183;28;20058;-65
2022/10/08 05:01:36;;;;;;;20.50;7.10;;;;;;;11.07;100.00;101662.03;5072467;28;20074;-65
2022/10/08 05:04:02;;;;;;;19.15;8.65;;;;;;;11.08;100.00;101669.88;5072711;28;20035;-65
2022/10/08 05:06:29;;;;;;;20.02;8.30;;;;;;;11.10;100.00;101670.50;5072640;28;20064;-65
2022/10/08 05:08:57;;;;;;;17.88;9.00;;;;;;;11.09;100.00;101674.19;5072692;28;20032;-65
2022/10/08 05:11:25;;;;;;;20.10;8.35;;;;;;;11.11;100.00;101677.53;5072471;28;20048;-65
2022/10/08 05:13:52;;;;;;;20.83;9.02;;;;;;;11.14;100.00;101681.69;5072466;28;20113;-65
2022/10/08 05:16:18;;;;;;;21.27;10.07;;;;;;;11.14;100.00;101679.84;5072652;28;20032;-65
2022/10/08 05:18:45;;;;;;;22.65;8.95;;;;;;;11.16;100.00;101684.97;5072529;28;20033;-65
2022/10/08 05:21:14;;;;;;;22.63;10.73;;;;;;;11.18;100.00;101677.63;5072435;28;20035;-65
2022/10/08 05:23:44;;;;;;;21.17;11.57;;;;;;;11.17;100.00;101684.81;5072409;28;20661;-65
2022/10/08 05:26:13;;;;;;;25.90;14.02;;;;;;;11.17;100.00;101683.97;5072411;28;20040;-65
2022/10/08 05:28:38;;;;;;;26.67;12.45;;;;;;;11.16;100.00;101692.97;5072492;28;20101;-65
2022/10/08 05:31:04;;;;;;;25.17;11.95;;;;;;;11.16;100.00;101692.97;5072295;28;20481;-65
2022/10/08 05:33:29;;;;;;;26.45;14.02;;;;;;;11.14;100.00;101693.19;5072349;28;20028;-65
2022/10/08 05:35:55;;;;;;;24.17;12.18;;;;;;;11.15;100.00;101697.50;5072119;28;20502;-65
2022/10/08 05:38:20;;;;;;;27.83;13.30;;;;;;;11.17;100.00;101697.34;5072213;28;20033;-65
2022/10/08 05:40:45;;;;;;;28.65;13.40;;;;;;;11.18;100.00;101693.63;5072342;28;20028;-65
2022/10/08 05:43:11;;;;;;;28.52;13.95;;;;;;;11.16;100.00;101703.66;5072099;28;20032;-66
2022/10/08 05:45:36;;;;;;;28.50;13.30;;;;;;;11.15;100.00;101707.34;5072036;28;20368;-65
2022/10/08 05:48:01;;;;;;;31.83;15.18;;;;;;;11.14;100.00;101717.22;5072053;28;20423;-65
2022/10/08 05:50:27;;;;;;;27.35;14.40;;;;;;;11.14;100.00;101716.38;5072022;28;20463;-65
2022/10/08 05:52:52;;;;;;;28.90;15.15;;;;;;;11.14;100.00;101719.88;5071922;28;20085;-65
2022/10/08 05:55:17;;;;;;;30.42;16.17;;;;;;;11.13;100.00;101728.06;5071652;28;20032;-65
2022/10/08 05:57:43;;;;;;;31.75;14.35;;;;;;;11.09;100.00;101726.78;5071771;28;20392;-65
2022/10/08 06:00:09;;;;;;;29.25;15.23;;;;;;;11.10;100.00;101728.41;5069299;28;20028;-65
2022/10/08 06:02:34;;;;;;;35.03;15.90;;;;;;;11.10;100.00;101736.44;5071669;28;20128;-65
2022/10/08 06:04:59;;;;;;;29.65;15.68;;;;;;;11.08;100.00;101739.28;5071399;28;20062;-65
2022/10/08 06:07:25;;;;;;;32.25;16.13;;;;;;;11.08;100.00;101741.97;5071471;28;20068;-65
2022/10/08 06:09:51;;;;;;;33.53;17.00;;;;;;;11.06;100.00;101746.63;5071549;28;20133;-65
2022/10/08 06:12:16;;;;;;;33.80;18.40;;;;;;;11.07;100.00;101747.47;5071385;28;20067;-65
2022/10/08 06:14:42;;;;;;;29.98;16.00;;;;;;;11.08;100.00;101751.78;5071415;28;20502;-65
2022/10/08 06:17:07;;;;;;;34.78;18.35;;;;;;;11.08;100.00;101757.13;5071456;28;20036;-66
2022/10/08 06:19:35;;;;;;;33.80;16.65;;;;;;;11.08;100.00;101765.13;5071361;28;20031;-66
2022/10/08 06:22:01;;;;;;;33.97;16.50;;;;;;;11.06;100.00;101767.19;5071265;28;20060;-66
2022/10/08 06:24:26;;;;;;;33.80;18.15;;;;;;;11.04;100.00;101761.19;5071702;28;20067;-65
2022/10/08 06:26:52;;;;;;;30.98;16.10;;;;;;;11.01;100.00;101761.53;5069959;28;20062;-65
2022/10/08 06:29:17;;;;;;;34.33;18.30;;;;;;;11.06;100.00;101784.00;5071146;28;20115;-65
2022/10/08 06:31:44;;;;;;;33.90;17.13;;;;;;;11.08;100.00;101782.00;5070533;28;20467;-66
2022/10/08 06:34:09;;;;;;;31.52;17.33;;;;;;;11.10;100.00;101781.81;5071088;28;20029;-65
2022/10/08 06:36:36;;;;;;;34.85;17.90;;;;;;;11.11;100.00;101787.00;5071196;28;20059;-65
2022/10/08 06:39:09;;;;;;;36.70;19.13;;;;;;;11.11;100.00;101789.66;5070990;28;20031;-65
2022/10/08 06:41:35;;;;;;;33.65;16.05;;;;;;;11.11;100.00;101796.84;5070859;28;20032;-65
2022/10/08 06:44:05;;;;;;;31.88;18.38;;;;;;;11.12;100.00;101804.66;5070956;28;20038;-65
2022/10/08 06:46:31;;;;;;;33.30;16.55;;;;;;;11.13;100.00;101800.13;5070723;28;20059;-65
2022/10/08 06:48:59;;;;;;;35.15;18.08;;;;;;;11.16;100.00;101810.47;5070731;28;20437;-66
2022/10/08 06:51:24;;;;;;;38.38;17.55;;;;;;;11.22;100.00;101816.97;5070588;28;20025;-66
2022/10/08 06:53:53;;;;;;;37.58;20.23;;;;;;;11.26;100.00;101818.25;5070673;28;20051;-66
2022/10/08 06:56:18;;;;;;;33.85;18.95;;;;;;;11.28;100.00;101824.25;5070848;28;20099;-66
2022/10/08 06:58:45;;;;;;;37.05;19.17;;;;;;;11.29;100.00;101828.56;5070243;28;20124;-66
2022/10/08 07:01:15;;;;;;;30.02;17.23;;;;;;;11.31;100.00;101831.91;5068897;28;20028;-64
2022/10/08 07:03:41;;;;;;;33.25;17.25;;;;;;;11.30;100.00;101830.25;5069832;28;20024;-65
2022/10/08 07:06:11;;;;;;;39.60;17.83;;;;;;;11.34;100.00;101842.22;5068848;28;20396;-65
2022/10/08 07:08:37;;;;;;;36.75;16.80;;;;;;;11.36;100.00;101843.72;5069966;28;20482;-66
2022/10/08 07:11:07;;;;;;;32.70;17.13;;;;;;;11.40;100.00;101849.56;5069858;28;20067;-67
2022/10/08 07:13:33;;;;;;;38.17;19.25;;;;;;;11.44;100.00;101858.03;5070235;28;20576;-67
2022/10/08 07:16:06;;;;;;;30.83;17.15;;;;;;;11.51;100.00;101865.16;5062378;28;20033;-66
2022/10/08 07:18:34;;;;;;;33.80;17.23;;;;;;;11.59;100.00;101874.97;5064290;28;20048;-64
2022/10/08 07:21:00;;;;;;;31.73;15.02;;;;;;;11.65;100.00;101871.56;5065917;28;20032;-65
2022/10/08 07:23:25;;;;;;;32.70;16.40;;;;;;;11.62;100.00;101877.28;5065735;28;20024;-66
2022/10/08 07:26:23;;;;;;;30.92;15.90;;;;;;;11.67;100.00;101868.72;5065794;28;20017;-66
2022/10/08 07:28:52;;;;;;;31.50;14.90;;;;;;;11.68;100.00;101875.72;5056577;28;20047;-65
2022/10/08 07:31:20;;;;;;;29.98;12.70;;;;;;;11.71;100.00;101878.88;5065402;28;20020;-65
2022/10/08 07:33:46;;;;;;;25.80;13.43;;;;;;;11.75;100.00;101879.34;5065181;28;20051;-66
2022/10/08 07:36:17;;;;;;;30.92;13.55;;;;;;;11.82;100.00;101891.00;5065470;28;20029;-68
2022/10/08 07:38:42;;;;;;;27.67;11.32;;;;;;;11.88;100.00;101884.13;5065638;28;20024;-66
2022/10/08 07:41:10;;;;;;;23.58;12.00;;;;;;;11.96;100.00;101895.56;5065303;28;20032;-67
2022/10/08 07:43:36;;;;;;;21.05;9.00;;;;;;;12.00;100.00;101891.53;5069563;28;20103;-65
2022/10/08 07:46:04;;;;;;;22.70;10.30;;;;;;;12.03;100.00;101888.50;5069500;28;20507;-65
2022/10/08 07:48:30;;;;;;;20.85;8.45;;;;;;;12.10;100.00;101904.63;5069191;28;20040;-66
2022/10/08 07:51:10;;;;;;;20.05;8.35;;;;;;;12.16;100.00;101909.28;5069570;28;20036;-66
2022/10/08 07:53:36;;;;;;;16.42;7.38;;;;;;;12.22;100.00;101903.19;5069173;28;20474;-66
2022/10/08 07:56:03;;;;;;;21.42;8.52;;;;;;;12.21;100.00;101900.72;5069555;28;20471;-66
2022/10/08 07:58:28;;;;;;;17.98;6.90;;;;;;;12.27;100.00;101908.84;5069510;28;20033;-66
2022/10/08 08:00:58;;;;;;;17.67;6.25;;;;;;;12.35;100.00;101915.97;5068700;28;20089;-64
2022/10/08 08:03:24;;;;;;;20.35;6.80;;;;;;;12.41;100.00;101909.88;5068584;28;20399;-66
2022/10/08 08:05:50;;;;;;;13.82;6.65;;;;;;;12.49;98.72;101915.13;5069057;28;20031;-64
2022/10/08 08:08:15;;;;;;;13.75;4.13;;;;;;;12.56;96.25;101920.59;5069353;28;20024;-64
2022/10/08 08:10:41;;;;;;;16.98;5.20;;;;;;;12.59;96.14;101922.91;5067645;28;20842;-64
2022/10/08 08:13:06;;;;;;;12.65;4.80;;;;;;;12.68;97.27;101928.97;5064224;28;20570;-63
2022/10/08 08:15:32;;;;;;;13.40;3.95;;;;;;;12.75;96.74;101931.78;5065392;28;20090;-64
2022/10/08 08:17:57;;;;;;;13.60;4.95;;;;;;;12.80;95.78;101934.72;5064149;28;20024;-65
2022/10/08 08:20:22;;;;;;;18.25;3.78;;;;;;;12.81;93.67;101936.38;5066154;28;20052;-73
2022/10/08 08:22:48;;;;;;;9.75;3.42;;;;;;;12.83;93.10;101940.53;5068459;28;20391;-65
2022/10/08 08:25:13;;;;;;;12.13;4.00;;;;;;;12.89;94.22;101934.47;5068990;28;20104;-65
2022/10/08 08:27:38;;;;;;;11.85;4.28;;;;;;;12.97;93.83;101944.25;5068782;28;20491;-65
2022/10/08 08:30:05;;;;;;;10.20;3.97;;;;;;;12.98;92.35;101942.38;5069045;28;20138;-65
2022/10/08 08:32:30;;;;;;;14.13;2.97;;;;;;;13.04;91.10;101955.03;5069236;28;20020;-64
2022/10/08 08:34:55;;;;;;;11.50;3.42;;;;;;;13.11;91.55;101955.94;5069001;28;20502;-65
2022/10/08 08:37:21;;;;;;;7.85;3.05;;;;;;;13.14;90.30;101961.75;5068872;28;20058;-65
2022/10/08 08:39:46;;;;;;;10.50;3.75;;;;;;;13.18;91.53;101966.75;5068890;28;20032;-65
2022/10/08 08:42:29;;;;;;;10.18;3.05;;;;;;;13.30;91.38;101970.66;5068757;28;20028;-65
2022/10/08 08:45:14;;;;;;;9.32;2.90;;;;;;;13.35;89.37;101973.59;5068705;28;20020;-64
2022/10/08 08:47:47;;;;;;;6.13;2.50;;;;;;;13.44;90.08;101977.84;5068785;28;20536;-65
2022/10/08 08:50:32;;;;;;;5.45;2.03;;;;;;;13.52;87.21;101974.22;5068403;28;20556;-65
2022/10/08 08:52:58;;;;;;;6.75;1.85;;;;;;;13.55;87.24;101981.88;5068872;28;20029;-64
2022/10/08 08:55:46;;;;;;;9.65;2.85;;;;;;;13.62;85.93;101987.31;5068748;28;20384;-64
2022/10/08 08:58:19;;;;;;;2.90;1.90;;;;;;;13.63;84.63;101984.44;5068964;28;20443;-65
2022/10/08 09:00:57;;;;;;;6.10;1.92;;;;;;;13.71;82.49;101991.56;5068789;28;20039;-65
2022/10/08 09:03:33;;;;;;;5.13;1.20;;;;;;;13.74;81.46;101993.84;5068087;28;20340;-65
2022/10/08 09:06:08;;;;;;;6.53;1.50;;;;;;;13.76;81.78;101997.19;5068135;28;20385;-64
2022/10/08 09:08:39;;;;;;;4.90;1.23;;;;;;;13.79;80.46;101994.09;5068471;28;20499;-64
2022/10/08 09:11:05;;;;;;;7.43;1.85;;;;;;;13.88;80.33;102002.84;5068576;28;20044;-65
2022/10/08 09:13:38;;;;;;;5.35;1.40;;;;;;;13.89;80.81;102005.38;5068673;28;20031;-65
2022/10/08 09:16:04;;;;;;;2.72;1.50;;;;;;;13.99;79.79;102008.56;5068205;28;20085;-64
2022/10/08 09:18:31;;;;;;;8.57;1.63;;;;;;;14.05;79.46;102008.81;5067306;28;20037;-64
2022/10/08 09:20:57;;;;;;;10.52;2.15;;;;;;;14.04;78.10;102018.69;5068336;28;20028;-65
2022/10/08 09:23:24;;;;;;;3.53;1.10;;;;;;;13.98;79.37;102008.75;5068586;28;20032;-65
2022/10/08 09:26:02;;;;;;;5.65;1.23;;;;;;;14.17;77.40;102024.22;5068567;28;20036;-65
2022/10/08 09:28:47;;;;;;;9.32;2.35;;;;;;;14.05;77.42;102031.09;5068186;28;20028;-65
2022/10/08 09:31:39;;;;;;;5.43;1.38;;;;;;;13.90;79.11;102027.63;5068657;28;20509;-65
2022/10/08 09:34:22;;;;;;;6.85;1.35;;;;;;;13.95;78.90;102022.53;5064213;28;20079;-65
2022/10/08 09:36:51;;;;;;;1.63;0.90;;;;;;;14.03;76.05;102042.00;5071825;28;20060;-64
2022/10/08 09:39:18;;;;;;;3.38;1.30;;;;;;;14.02;74.59;102035.00;5072144;28;20115;-65
2022/10/08 09:41:45;;;;;;;3.80;1.45;;;;;;;14.00;72.22;102044.25;5072002;28;20501;-65
2022/10/08 09:44:20;;;;;;;8.30;2.58;;;;;;;14.12;75.69;102045.44;5072034;28;20529;-64
2022/10/08 09:46:47;;;;;;;6.15;2.60;;;;;;;14.28;72.76;102049.72;5072098;28;20074;-65
2022/10/08 09:49:33;;;;;;;8.75;2.22;;;;;;;14.31;73.86;102043.97;5071955;28;20025;-64
2022/10/08 09:52:03;;;;;;;7.05;2.15;;;;;;;14.24;74.17;102051.94;5071878;28;20024;-64
2022/10/08 09:54:34;;;;;;;7.30;2.83;;;;;;;14.22;74.94;102058.50;5071511;28;20028;-65
2022/10/08 09:57:01;;;;;;;17.08;2.38;;;;;;;14.15;74.59;102063.81;5071648;28;20468;-65
2022/10/08 09:59:29;;;;;;;4.47;2.10;;;;;;;14.03;76.03;102066.16;5071649;28;20020;-65
2022/10/08 10:01:56;;;;;;;7.07;1.83;;;;;;;13.91;76.19;102075.75;5071676;28;20052;-65
2022/10/08 10:04:36;;;;;;;7.80;1.45;;;;;;;13.83;76.94;102073.13;5071056;28;20111;-65
2022/10/08 10:07:03;;;;;;;7.10;1.30;;;;;;;13.78;77.27;102078.22;5070473;28;20123;-65
2022/10/08 10:09:49;;;;;;;4.45;1.90;;;;;;;13.78;77.27;102067.50;5071072;28;20036;-65
2022/10/08 10:12:31;;;;;;;7.78;1.45;;;;;;;13.95;78.50;102070.81;5071018;28;20084;-65
2022/10/08 10:15:03;;;;;;;8.52;1.95;;;;;;;14.18;75.71;102070.66;5071383;28;20119;-64
2022/10/08 10:17:44;;;;;;;4.88;1.92;;;;;;;14.48;76.07;102077.56;5071350;28;20032;-65
2022/10/08 10:20:22;;;;;;;15.05;2.15;;;;;;;14.68;71.36;102075.09;5071399;28;20016;-63
2022/10/08 10:22:56;;;;;;;5.63;1.25;;;;;;;14.87;68.99;102076.25;5071291;28;20039;-65
2022/10/08 10:25:33;;;;;;;2.35;1.30;;;;;;;14.98;67.88;102079.44;5071182;28;20036;-68
2022/10/08 10:28:16;;;;;;;3.50;1.10;;;;;;;15.07;66.52;102087.16;5070008;28;20030;-65
2022/10/08 10:30:58;;;;;;;2.45;1.30;;;;;;;15.20;67.16;102078.38;5066087;28;20024;-64
2022/10/08 10:33:29;;;;;;;1.13;0.85;;;;;;;15.27;66.51;102079.25;5066207;28;20020;-63
2022/10/08 10:36:02;;;;;;;3.38;0.80;;;;;;;15.31;65.59;102080.50;5066750;28;20449;-65
2022/10/08 10:38:30;;;;;;;1.25;0.80;;;;;;;15.46;67.27;102087.63;5066786;28;20032;-64
2022/10/08 10:41:29;;;;;;;4.25;1.40;;;;;;;15.46;69.06;102090.31;5066547;28;20375;-66
2022/10/08 10:44:20;;;;;;;5.57;2.38;;;;;;;15.41;66.91;102085.53;5066461;28;20174;-64
2022/10/08 10:46:50;;;;;;;1.55;0.80;;;;;;;15.42;63.04;102094.41;5066027;28;20017;-64
2022/10/08 10:49:42;;;;;;;11.20;1.42;;;;;;;15.33;63.80;102091.88;5065750;28;20125;-64
2022/10/08 10:52:43;;;;;;;4.97;1.10;;;;;;;15.38;64.61;102095.81;5063992;28;20166;-63
2022/10/08 10:55:23;;;;;;;1.92;0.75;;;;;;;15.43;64.63;102088.84;5070418;28;20058;-65
2022/10/08 10:57:58;;;;;;;4.45;1.20;;;;;;;15.55;65.10;102091.78;5070542;28;20488;-65
2022/10/08 11:00:38;;;;;;;6.70;1.55;;;;;;;15.64;65.81;102096.00;5070591;28;20073;-65
2022/10/08 11:03:17;;;;;;;2.47;0.90;;;;;;;15.69;63.37;102096.25;5070403;28;20495;-65
2022/10/08 11:05:46;;;;;;;4.00;1.42;;;;;;;15.75;61.50;102098.13;5069532;28;20036;-65
2022/10/08 11:08:42;;;;;;;5.88;1.65;;;;;;;15.69;61.81;102101.63;5069383;28;20040;-65
2022/10/08 11:11:20;;;;;;;4.13;1.35;;;;;;;15.63;61.07;102094.31;5069651;28;20041;-65
2022/10/08 11:14:11;;;;;;;4.05;1.27;;;;;;;15.64;62.18;102097.81;5070037;28;20085;-64
2022/10/08 11:16:36;;;;;;;6.72;1.58;;;;;;;15.57;62.36;102098.63;5070047;28;20090;-65
2022/10/08 11:19:04;;;;;;;5.93;1.50;;;;;;;15.54;61.77;102098.22;5070282;28;20024;-65
2022/10/08 11:21:48;;;;;;;3.75;1.23;;;;;;;15.56;63.48;102101.50;5070236;28;20020;-65
2022/10/08 11:24:39;;;;;;;5.13;1.38;;;;;;;15.70;62.69;102092.53;5070207;28;20187;-65
2022/10/08 11:27:41;;;;;;;3.60;0.82;;;;;;;15.74;60.95;102101.00;5070313;28;20024;-65
2022/10/08 11:30:13;;;;;;;5.40;1.63;;;;;;;15.86;59.55;102102.09;5069708;28;20036;-65
2022/10/08 11:32:43;;;;;;;4.82;1.13;;;;;;;16.03;59.72;102104.44;5069940;28;20044;-65
2022/10/08 11:35:11;;;;;;;2.47;1.05;;;;;;;16.13;59.86;102099.50;5069607;28;20067;-65